Slavyansk-na-Kubani, Russia
Current Conditions -  °F | °C
As of 5:30 PM on Saturday 25 Oct 2014 (Local Time) from URKA Reporting Station
Clear Clear  
Wind Chill: 22°   Ceiling: Unl
Heat Index: 36°   Visibility: 6mi
Dew Point: 27°   Wind: 34mph
Humidity: 70%   Direction: 80°E
Pressure: 30.24"   Gusts: 45mph
Location:  45.25°N, 38.12°E
Report Text: URKA 251430Z 08015G20MPS CAVOK 02/M03 Q1024 WS RWY04 NOSIG RMKQFE764/1018 SC070
Loading
Personal Weather Stations






























Interactive Weather Map
Tropical Storm Tracking
New forecast layout! Learn more

10-Day Weather Forecast

Advertisements
Track Severe Weather on mobile